sensor_id;sensor_type;location;lat;lon;timestamp;P1;durP1;ratioP1;P2;durP2;ratioP2
74344;SDS011;62776;50.518;6.732;2022-11-20T00:00:39;498.00;;;55.72;;
74344;SDS011;62776;50.518;6.732;2022-11-20T00:03:25;366.77;;;44.15;;
74344;SDS011;62776;50.518;6.732;2022-11-20T00:06:12;337.15;;;41.97;;
74344;SDS011;62776;50.518;6.732;2022-11-20T00:09:00;522.00;;;60.72;;
74344;SDS011;62776;50.518;6.732;2022-11-20T00:11:46;284.98;;;35.38;;
74344;SDS011;62776;50.518;6.732;2022-11-20T00:14:32;327.10;;;41.05;;
74344;SDS011;62776;50.518;6.732;2022-11-20T00:17:18;525.42;;;62.33;;
74344;SDS011;62776;50.518;6.732;2022-11-20T00:20:04;243.00;;;30.25;;
74344;SDS011;62776;50.518;6.732;2022-11-20T00:22:51;538.55;;;71.60;;
74344;SDS011;62776;50.518;6.732;2022-11-20T00:25:37;512.08;;;62.20;;
74344;SDS011;62776;50.518;6.732;2022-11-20T00:28:23;455.05;;;74.20;;
74344;SDS011;62776;50.518;6.732;2022-11-20T00:31:11;371.27;;;51.00;;
74344;SDS011;62776;50.518;6.732;2022-11-20T00:33:58;197.82;;;28.98;;
74344;SDS011;62776;50.518;6.732;2022-11-20T00:36:44;316.20;;;39.72;;
74344;SDS011;62776;50.518;6.732;2022-11-20T00:39:30;230.93;;;30.27;;
74344;SDS011;62776;50.518;6.732;2022-11-20T00:42:16;441.38;;;56.47;;
74344;SDS011;62776;50.518;6.732;2022-11-20T00:45:03;308.48;;;40.13;;
74344;SDS011;62776;50.518;6.732;2022-11-20T00:47:49;224.10;;;35.50;;
74344;SDS011;62776;50.518;6.732;2022-11-20T00:50:35;645.00;;;95.93;;
74344;SDS011;62776;50.518;6.732;2022-11-20T00:53:21;323.90;;;39.75;;
74344;SDS011;62776;50.518;6.732;2022-11-20T00:56:12;367.88;;;54.40;;
74344;SDS011;62776;50.518;6.732;2022-11-20T00:59:00;455.13;;;62.07;;
74344;SDS011;62776;50.518;6.732;2022-11-20T01:01:46;398.23;;;48.47;;
74344;SDS011;62776;50.518;6.732;2022-11-20T01:04:32;432.73;;;46.17;;
74344;SDS011;62776;50.518;6.732;2022-11-20T01:07:18;422.88;;;58.00;;
74344;SDS011;62776;50.518;6.732;2022-11-20T01:10:04;206.70;;;27.48;;
74344;SDS011;62776;50.518;6.732;2022-11-20T01:12:51;350.48;;;49.92;;
74344;SDS011;62776;50.518;6.732;2022-11-20T01:16:01;197.68;;;29.98;;
74344;SDS011;62776;50.518;6.732;2022-11-20T01:19:02;263.52;;;33.85;;
74344;SDS011;62776;50.518;6.732;2022-11-20T01:21:50;313.45;;;43.22;;
74344;SDS011;62776;50.518;6.732;2022-11-20T01:24:38;362.70;;;48.97;;
74344;SDS011;62776;50.518;6.732;2022-11-20T01:27:24;413.55;;;53.75;;
74344;SDS011;62776;50.518;6.732;2022-11-20T01:30:10;311.02;;;42.88;;
74344;SDS011;62776;50.518;6.732;2022-11-20T01:32:57;260.02;;;38.03;;
74344;SDS011;62776;50.518;6.732;2022-11-20T01:35:43;374.30;;;68.57;;
74344;SDS011;62776;50.518;6.732;2022-11-20T01:38:29;330.98;;;46.78;;
74344;SDS011;62776;50.518;6.732;2022-11-20T01:41:15;446.75;;;60.80;;
74344;SDS011;62776;50.518;6.732;2022-11-20T01:44:20;243.18;;;36.80;;
74344;SDS011;62776;50.518;6.732;2022-11-20T01:47:31;312.05;;;41.85;;
74344;SDS011;62776;50.518;6.732;2022-11-20T01:50:22;357.33;;;50.60;;
74344;SDS011;62776;50.518;6.732;2022-11-20T01:53:15;454.98;;;62.90;;
74344;SDS011;62776;50.518;6.732;2022-11-20T01:56:05;284.48;;;39.60;;
74344;SDS011;62776;50.518;6.732;2022-11-20T01:58:56;252.65;;;31.67;;
74344;SDS011;62776;50.518;6.732;2022-11-20T02:01:45;224.30;;;34.67;;
74344;SDS011;62776;50.518;6.732;2022-11-20T02:04:32;272.08;;;37.75;;
74344;SDS011;62776;50.518;6.732;2022-11-20T02:07:18;272.20;;;38.88;;
74344;SDS011;62776;50.518;6.732;2022-11-20T02:10:06;400.25;;;53.50;;
74344;SDS011;62776;50.518;6.732;2022-11-20T02:12:52;265.98;;;42.20;;
74344;SDS011;62776;50.518;6.732;2022-11-20T02:15:57;509.40;;;74.65;;
74344;SDS011;62776;50.518;6.732;2022-11-20T02:18:44;490.85;;;74.63;;
74344;SDS011;62776;50.518;6.732;2022-11-20T02:24:27;714.53;;;108.35;;
74344;SDS011;62776;50.518;6.732;2022-11-20T02:27:14;274.38;;;47.55;;
74344;SDS011;62776;50.518;6.732;2022-11-20T02:30:04;99.28;;;25.15;;
74344;SDS011;62776;50.518;6.732;2022-11-20T02:32:55;173.88;;;34.55;;
74344;SDS011;62776;50.518;6.732;2022-11-20T02:35:44;121.25;;;23.23;;
74344;SDS011;62776;50.518;6.732;2022-11-20T02:38:31;210.80;;;31.73;;
74344;SDS011;62776;50.518;6.732;2022-11-20T02:41:17;203.55;;;30.95;;
74344;SDS011;62776;50.518;6.732;2022-11-20T02:44:04;141.13;;;25.30;;
74344;SDS011;62776;50.518;6.732;2022-11-20T02:46:51;150.13;;;25.13;;
74344;SDS011;62776;50.518;6.732;2022-11-20T02:49:37;97.15;;;25.95;;
74344;SDS011;62776;50.518;6.732;2022-11-20T02:52:23;62.92;;;19.45;;
74344;SDS011;62776;50.518;6.732;2022-11-20T02:55:10;149.00;;;29.95;;
74344;SDS011;62776;50.518;6.732;2022-11-20T02:57:56;173.18;;;36.78;;
74344;SDS011;62776;50.518;6.732;2022-11-20T03:00:42;271.48;;;43.97;;
74344;SDS011;62776;50.518;6.732;2022-11-20T03:03:28;141.23;;;31.92;;
74344;SDS011;62776;50.518;6.732;2022-11-20T03:06:15;266.60;;;44.05;;
74344;SDS011;62776;50.518;6.732;2022-11-20T03:09:01;87.25;;;22.52;;
74344;SDS011;62776;50.518;6.732;2022-11-20T03:11:48;322.90;;;55.65;;
74344;SDS011;62776;50.518;6.732;2022-11-20T03:14:34;392.23;;;55.97;;
74344;SDS011;62776;50.518;6.732;2022-11-20T03:17:20;298.30;;;50.55;;
74344;SDS011;62776;50.518;6.732;2022-11-20T03:20:06;267.83;;;43.53;;
74344;SDS011;62776;50.518;6.732;2022-11-20T03:22:54;369.63;;;59.38;;
74344;SDS011;62776;50.518;6.732;2022-11-20T03:25:40;302.92;;;49.25;;
74344;SDS011;62776;50.518;6.732;2022-11-20T03:28:26;548.10;;;82.63;;
74344;SDS011;62776;50.518;6.732;2022-11-20T03:31:13;233.95;;;40.28;;
74344;SDS011;62776;50.518;6.732;2022-11-20T03:34:01;445.42;;;56.63;;
74344;SDS011;62776;50.518;6.732;2022-11-20T03:36:48;492.02;;;79.47;;
74344;SDS011;62776;50.518;6.732;2022-11-20T03:39:34;130.98;;;28.23;;
74344;SDS011;62776;50.518;6.732;2022-11-20T03:42:20;372.17;;;53.38;;
74344;SDS011;62776;50.518;6.732;2022-11-20T03:45:24;267.25;;;39.20;;
74344;SDS011;62776;50.518;6.732;2022-11-20T03:48:10;280.70;;;41.47;;
74344;SDS011;62776;50.518;6.732;2022-11-20T03:51:07;126.43;;;33.30;;
74344;SDS011;62776;50.518;6.732;2022-11-20T03:54:07;209.93;;;36.70;;
74344;SDS011;62776;50.518;6.732;2022-11-20T03:56:53;302.85;;;49.70;;
74344;SDS011;62776;50.518;6.732;2022-11-20T03:59:39;128.80;;;24.77;;
74344;SDS011;62776;50.518;6.732;2022-11-20T04:02:25;121.22;;;27.63;;
74344;SDS011;62776;50.518;6.732;2022-11-20T04:05:11;67.03;;;20.48;;
74344;SDS011;62776;50.518;6.732;2022-11-20T04:07:58;124.03;;;29.30;;
74344;SDS011;62776;50.518;6.732;2022-11-20T04:10:44;89.82;;;24.88;;
74344;SDS011;62776;50.518;6.732;2022-11-20T04:13:30;37.92;;;16.27;;
74344;SDS011;62776;50.518;6.732;2022-11-20T04:16:16;46.28;;;19.92;;
74344;SDS011;62776;50.518;6.732;2022-11-20T04:19:04;113.38;;;27.58;;
74344;SDS011;62776;50.518;6.732;2022-11-20T04:21:51;105.97;;;27.70;;
74344;SDS011;62776;50.518;6.732;2022-11-20T04:24:37;73.50;;;20.45;;
74344;SDS011;62776;50.518;6.732;2022-11-20T04:27:23;77.60;;;21.27;;
74344;SDS011;62776;50.518;6.732;2022-11-20T04:30:09;102.03;;;27.83;;
74344;SDS011;62776;50.518;6.732;2022-11-20T04:32:56;109.75;;;24.95;;
74344;SDS011;62776;50.518;6.732;2022-11-20T04:35:48;93.60;;;25.40;;
74344;SDS011;62776;50.518;6.732;2022-11-20T04:38:34;109.10;;;24.33;;
74344;SDS011;62776;50.518;6.732;2022-11-20T04:41:21;96.63;;;22.77;;
74344;SDS011;62776;50.518;6.732;2022-11-20T04:44:08;64.72;;;20.02;;
74344;SDS011;62776;50.518;6.732;2022-11-20T04:46:54;67.30;;;21.40;;
74344;SDS011;62776;50.518;6.732;2022-11-20T04:49:40;84.03;;;22.25;;
74344;SDS011;62776;50.518;6.732;2022-11-20T04:52:26;26.40;;;13.68;;
74344;SDS011;62776;50.518;6.732;2022-11-20T04:55:12;45.25;;;16.52;;
74344;SDS011;62776;50.518;6.732;2022-11-20T04:57:58;43.70;;;18.73;;
74344;SDS011;62776;50.518;6.732;2022-11-20T05:00:44;41.72;;;18.73;;
74344;SDS011;62776;50.518;6.732;2022-11-20T05:03:30;35.90;;;14.75;;
74344;SDS011;62776;50.518;6.732;2022-11-20T05:06:18;33.00;;;15.43;;
74344;SDS011;62776;50.518;6.732;2022-11-20T05:09:05;27.77;;;14.35;;
74344;SDS011;62776;50.518;6.732;2022-11-20T05:11:51;19.20;;;13.07;;
74344;SDS011;62776;50.518;6.732;2022-11-20T05:14:37;50.80;;;19.77;;
74344;SDS011;62776;50.518;6.732;2022-11-20T05:17:23;27.17;;;15.13;;
74344;SDS011;62776;50.518;6.732;2022-11-20T05:20:09;24.85;;;14.93;;
74344;SDS011;62776;50.518;6.732;2022-11-20T05:22:56;13.27;;;10.75;;
74344;SDS011;62776;50.518;6.732;2022-11-20T05:25:42;14.90;;;11.07;;
74344;SDS011;62776;50.518;6.732;2022-11-20T05:28:29;15.50;;;10.93;;
74344;SDS011;62776;50.518;6.732;2022-11-20T05:31:17;12.38;;;9.82;;
74344;SDS011;62776;50.518;6.732;2022-11-20T05:34:04;12.57;;;9.85;;
74344;SDS011;62776;50.518;6.732;2022-11-20T05:36:51;11.43;;;8.75;;
74344;SDS011;62776;50.518;6.732;2022-11-20T05:39:37;13.07;;;9.38;;
74344;SDS011;62776;50.518;6.732;2022-11-20T05:42:23;8.77;;;7.88;;
74344;SDS011;62776;50.518;6.732;2022-11-20T05:45:18;12.73;;;8.40;;
74344;SDS011;62776;50.518;6.732;2022-11-20T05:48:04;8.02;;;6.85;;
74344;SDS011;62776;50.518;6.732;2022-11-20T05:50:50;8.90;;;7.07;;
74344;SDS011;62776;50.518;6.732;2022-11-20T05:53:36;10.40;;;8.02;;
74344;SDS011;62776;50.518;6.732;2022-11-20T05:56:22;9.82;;;7.72;;
74344;SDS011;62776;50.518;6.732;2022-11-20T05:59:08;10.48;;;8.57;;
74344;SDS011;62776;50.518;6.732;2022-11-20T06:01:54;9.77;;;7.72;;
74344;SDS011;62776;50.518;6.732;2022-11-20T06:04:41;14.13;;;10.00;;
74344;SDS011;62776;50.518;6.732;2022-11-20T06:07:27;8.60;;;7.70;;
74344;SDS011;62776;50.518;6.732;2022-11-20T06:10:13;11.50;;;9.35;;
74344;SDS011;62776;50.518;6.732;2022-11-20T06:12:59;15.32;;;10.10;;
74344;SDS011;62776;50.518;6.732;2022-11-20T06:15:51;13.32;;;9.48;;
74344;SDS011;62776;50.518;6.732;2022-11-20T06:18:38;20.17;;;10.32;;
74344;SDS011;62776;50.518;6.732;2022-11-20T06:21:24;50.90;;;20.13;;
74344;SDS011;62776;50.518;6.732;2022-11-20T06:24:10;49.22;;;13.35;;
74344;SDS011;62776;50.518;6.732;2022-11-20T06:26:56;19.55;;;12.95;;
74344;SDS011;62776;50.518;6.732;2022-11-20T06:29:43;16.05;;;12.13;;
74344;SDS011;62776;50.518;6.732;2022-11-20T06:32:29;15.93;;;11.65;;
74344;SDS011;62776;50.518;6.732;2022-11-20T06:35:15;21.00;;;12.35;;
74344;SDS011;62776;50.518;6.732;2022-11-20T06:38:01;11.50;;;9.93;;
74344;SDS011;62776;50.518;6.732;2022-11-20T06:40:47;16.65;;;11.95;;
74344;SDS011;62776;50.518;6.732;2022-11-20T06:43:33;14.90;;;11.85;;
74344;SDS011;62776;50.518;6.732;2022-11-20T06:46:19;14.23;;;10.15;;
74344;SDS011;62776;50.518;6.732;2022-11-20T06:49:05;17.33;;;12.02;;
74344;SDS011;62776;50.518;6.732;2022-11-20T06:51:51;16.38;;;12.05;;
74344;SDS011;62776;50.518;6.732;2022-11-20T06:54:37;15.13;;;11.15;;
74344;SDS011;62776;50.518;6.732;2022-11-20T06:57:23;52.45;;;19.13;;
74344;SDS011;62776;50.518;6.732;2022-11-20T07:00:10;29.65;;;15.50;;
74344;SDS011;62776;50.518;6.732;2022-11-20T07:02:56;34.13;;;15.90;;
74344;SDS011;62776;50.518;6.732;2022-11-20T07:05:42;26.33;;;15.57;;
74344;SDS011;62776;50.518;6.732;2022-11-20T07:08:30;58.88;;;19.65;;
74344;SDS011;62776;50.518;6.732;2022-11-20T07:11:16;62.60;;;21.98;;
74344;SDS011;62776;50.518;6.732;2022-11-20T07:14:02;30.00;;;16.23;;
74344;SDS011;62776;50.518;6.732;2022-11-20T07:16:48;27.33;;;16.13;;
74344;SDS011;62776;50.518;6.732;2022-11-20T07:19:35;57.17;;;20.48;;
74344;SDS011;62776;50.518;6.732;2022-11-20T07:22:21;71.85;;;20.55;;
74344;SDS011;62776;50.518;6.732;2022-11-20T07:25:07;144.45;;;26.60;;
74344;SDS011;62776;50.518;6.732;2022-11-20T07:27:57;107.97;;;22.17;;
74344;SDS011;62776;50.518;6.732;2022-11-20T07:30:49;80.45;;;23.83;;
74344;SDS011;62776;50.518;6.732;2022-11-20T07:33:36;78.65;;;23.90;;
74344;SDS011;62776;50.518;6.732;2022-11-20T07:36:22;19.77;;;14.80;;
74344;SDS011;62776;50.518;6.732;2022-11-20T07:39:08;80.10;;;19.90;;
74344;SDS011;62776;50.518;6.732;2022-11-20T07:41:54;50.83;;;18.17;;
74344;SDS011;62776;50.518;6.732;2022-11-20T07:44:43;164.48;;;37.20;;
74344;SDS011;62776;50.518;6.732;2022-11-20T07:47:34;88.78;;;22.30;;
74344;SDS011;62776;50.518;6.732;2022-11-20T07:50:21;23.92;;;15.85;;
74344;SDS011;62776;50.518;6.732;2022-11-20T07:53:07;29.27;;;16.38;;
74344;SDS011;62776;50.518;6.732;2022-11-20T07:55:53;20.40;;;13.55;;
74344;SDS011;62776;50.518;6.732;2022-11-20T07:58:39;18.52;;;14.80;;
74344;SDS011;62776;50.518;6.732;2022-11-20T08:01:25;21.20;;;15.40;;
74344;SDS011;62776;50.518;6.732;2022-11-20T08:04:11;13.98;;;12.57;;
74344;SDS011;62776;50.518;6.732;2022-11-20T08:06:57;26.58;;;16.52;;
74344;SDS011;62776;50.518;6.732;2022-11-20T08:09:43;14.23;;;12.50;;
74344;SDS011;62776;50.518;6.732;2022-11-20T08:12:29;12.27;;;11.05;;
74344;SDS011;62776;50.518;6.732;2022-11-20T08:15:34;13.20;;;11.85;;
74344;SDS011;62776;50.518;6.732;2022-11-20T08:18:21;14.13;;;12.02;;
74344;SDS011;62776;50.518;6.732;2022-11-20T08:21:07;14.70;;;13.10;;
74344;SDS011;62776;50.518;6.732;2022-11-20T08:23:53;13.57;;;12.20;;
74344;SDS011;62776;50.518;6.732;2022-11-20T08:26:39;12.98;;;11.32;;
74344;SDS011;62776;50.518;6.732;2022-11-20T08:29:26;11.48;;;10.35;;
74344;SDS011;62776;50.518;6.732;2022-11-20T08:32:12;10.30;;;9.30;;
74344;SDS011;62776;50.518;6.732;2022-11-20T08:34:58;11.23;;;10.13;;
74344;SDS011;62776;50.518;6.732;2022-11-20T08:37:47;8.77;;;7.97;;
74344;SDS011;62776;50.518;6.732;2022-11-20T08:40:34;8.35;;;7.55;;
74344;SDS011;62776;50.518;6.732;2022-11-20T08:43:20;7.57;;;6.97;;
74344;SDS011;62776;50.518;6.732;2022-11-20T08:46:06;9.07;;;8.18;;
74344;SDS011;62776;50.518;6.732;2022-11-20T08:48:52;7.80;;;7.20;;
74344;SDS011;62776;50.518;6.732;2022-11-20T08:51:39;8.88;;;8.10;;
74344;SDS011;62776;50.518;6.732;2022-11-20T08:54:26;8.40;;;7.70;;
74344;SDS011;62776;50.518;6.732;2022-11-20T08:57:12;10.90;;;9.80;;
74344;SDS011;62776;50.518;6.732;2022-11-20T08:59:58;9.18;;;8.38;;
74344;SDS011;62776;50.518;6.732;2022-11-20T09:02:44;9.27;;;8.38;;
74344;SDS011;62776;50.518;6.732;2022-11-20T09:05:30;8.35;;;7.68;;
74344;SDS011;62776;50.518;6.732;2022-11-20T09:08:16;9.52;;;8.75;;
74344;SDS011;62776;50.518;6.732;2022-11-20T09:11:02;11.40;;;10.40;;
74344;SDS011;62776;50.518;6.732;2022-11-20T09:13:49;11.95;;;10.85;;
74344;SDS011;62776;50.518;6.732;2022-11-20T09:16:35;11.27;;;10.27;;
74344;SDS011;62776;50.518;6.732;2022-11-20T09:19:21;11.88;;;10.77;;
74344;SDS011;62776;50.518;6.732;2022-11-20T09:22:08;13.23;;;12.02;;
74344;SDS011;62776;50.518;6.732;2022-11-20T09:24:54;13.20;;;12.07;;
74344;SDS011;62776;50.518;6.732;2022-11-20T09:27:40;14.00;;;12.73;;
74344;SDS011;62776;50.518;6.732;2022-11-20T09:30:28;13.90;;;12.63;;
74344;SDS011;62776;50.518;6.732;2022-11-20T09:33:15;12.98;;;11.77;;
74344;SDS011;62776;50.518;6.732;2022-11-20T09:36:02;11.73;;;10.73;;
74344;SDS011;62776;50.518;6.732;2022-11-20T09:38:48;13.10;;;11.93;;
74344;SDS011;62776;50.518;6.732;2022-11-20T09:41:45;12.70;;;11.60;;
74344;SDS011;62776;50.518;6.732;2022-11-20T09:47:41;10.98;;;9.88;;
74344;SDS011;62776;50.518;6.732;2022-11-20T09:51:11;11.27;;;10.27;;
74344;SDS011;62776;50.518;6.732;2022-11-20T09:54:21;11.07;;;10.10;;
74344;SDS011;62776;50.518;6.732;2022-11-20T09:57:12;13.73;;;12.35;;
74344;SDS011;62776;50.518;6.732;2022-11-20T10:00:05;12.13;;;10.93;;
74344;SDS011;62776;50.518;6.732;2022-11-20T10:03:03;10.52;;;9.63;;
74344;SDS011;62776;50.518;6.732;2022-11-20T10:05:58;10.68;;;9.68;;
74344;SDS011;62776;50.518;6.732;2022-11-20T10:08:50;10.77;;;9.77;;
74344;SDS011;62776;50.518;6.732;2022-11-20T10:12:03;9.55;;;8.75;;
74344;SDS011;62776;50.518;6.732;2022-11-20T10:14:54;11.07;;;10.07;;
74344;SDS011;62776;50.518;6.732;2022-11-20T10:17:58;9.70;;;8.13;;
74344;SDS011;62776;50.518;6.732;2022-11-20T10:21:27;9.48;;;8.68;;
74344;SDS011;62776;50.518;6.732;2022-11-20T10:30:42;8.05;;;7.38;;
74344;SDS011;62776;50.518;6.732;2022-11-20T10:33:38;8.50;;;7.80;;
74344;SDS011;62776;50.518;6.732;2022-11-20T10:36:28;8.40;;;7.60;;
74344;SDS011;62776;50.518;6.732;2022-11-20T10:42:37;8.75;;;8.05;;
74344;SDS011;62776;50.518;6.732;2022-11-20T10:45:38;7.72;;;7.10;;
74344;SDS011;62776;50.518;6.732;2022-11-20T10:48:34;8.43;;;7.60;;
74344;SDS011;62776;50.518;6.732;2022-11-20T10:51:35;6.35;;;5.75;;
74344;SDS011;62776;50.518;6.732;2022-11-20T10:54:43;7.82;;;7.13;;
74344;SDS011;62776;50.518;6.732;2022-11-20T11:01:04;7.78;;;7.00;;
74344;SDS011;62776;50.518;6.732;2022-11-20T11:03:58;7.72;;;7.03;;
74344;SDS011;62776;50.518;6.732;2022-11-20T11:06:46;7.40;;;6.53;;
74344;SDS011;62776;50.518;6.732;2022-11-20T11:09:35;7.68;;;6.85;;
74344;SDS011;62776;50.518;6.732;2022-11-20T11:12:28;7.25;;;6.55;;
74344;SDS011;62776;50.518;6.732;2022-11-20T11:15:24;6.60;;;5.78;;
74344;SDS011;62776;50.518;6.732;2022-11-20T11:18:29;6.80;;;5.97;;
74344;SDS011;62776;50.518;6.732;2022-11-20T11:21:23;6.07;;;5.47;;
74344;SDS011;62776;50.518;6.732;2022-11-20T11:24:15;6.28;;;5.47;;
74344;SDS011;62776;50.518;6.732;2022-11-20T11:27:13;5.60;;;5.10;;
74344;SDS011;62776;50.518;6.732;2022-11-20T11:30:14;6.95;;;6.28;;
74344;SDS011;62776;50.518;6.732;2022-11-20T11:33:05;5.90;;;5.30;;
74344;SDS011;62776;50.518;6.732;2022-11-20T11:35:56;6.25;;;5.40;;
74344;SDS011;62776;50.518;6.732;2022-11-20T11:38:50;6.60;;;5.70;;
74344;SDS011;62776;50.518;6.732;2022-11-20T11:41:38;5.38;;;4.88;;
74344;SDS011;62776;50.518;6.732;2022-11-20T11:44:27;3.83;;;3.20;;
74344;SDS011;62776;50.518;6.732;2022-11-20T11:50:28;3.42;;;2.65;;
74344;SDS011;62776;50.518;6.732;2022-11-20T11:53:16;3.75;;;3.08;;
74344;SDS011;62776;50.518;6.732;2022-11-20T11:56:10;4.57;;;2.45;;
74344;SDS011;62776;50.518;6.732;2022-11-20T11:59:00;4.00;;;2.33;;
74344;SDS011;62776;50.518;6.732;2022-11-20T12:01:59;3.13;;;2.00;;
74344;SDS011;62776;50.518;6.732;2022-11-20T12:05:02;4.95;;;3.17;;
74344;SDS011;62776;50.518;6.732;2022-11-20T12:08:17;4.18;;;3.42;;
74344;SDS011;62776;50.518;6.732;2022-11-20T12:11:37;5.07;;;3.03;;
74344;SDS011;62776;50.518;6.732;2022-11-20T12:14:43;4.30;;;2.60;;
74344;SDS011;62776;50.518;6.732;2022-11-20T12:17:35;3.50;;;2.40;;
74344;SDS011;62776;50.518;6.732;2022-11-20T12:20:23;3.63;;;2.78;;
74344;SDS011;62776;50.518;6.732;2022-11-20T12:23:42;2.30;;;2.05;;
74344;SDS011;62776;50.518;6.732;2022-11-20T12:32:30;3.50;;;2.33;;
74344;SDS011;62776;50.518;6.732;2022-11-20T12:38:51;2.10;;;1.90;;
74344;SDS011;62776;50.518;6.732;2022-11-20T12:45:13;4.13;;;1.70;;
74344;SDS011;62776;50.518;6.732;2022-11-20T12:51:13;3.80;;;2.10;;
74344;SDS011;62776;50.518;6.732;2022-11-20T12:54:42;3.70;;;2.08;;
74344;SDS011;62776;50.518;6.732;2022-11-20T13:03:22;2.45;;;2.00;;
74344;SDS011;62776;50.518;6.732;2022-11-20T13:06:26;4.22;;;2.17;;
74344;SDS011;62776;50.518;6.732;2022-11-20T13:09:13;1.70;;;1.60;;
74344;SDS011;62776;50.518;6.732;2022-11-20T13:12:06;2.40;;;2.03;;
74344;SDS011;62776;50.518;6.732;2022-11-20T13:18:09;2.63;;;1.83;;
74344;SDS011;62776;50.518;6.732;2022-11-20T13:20:56;3.22;;;1.63;;
74344;SDS011;62776;50.518;6.732;2022-11-20T13:23:42;2.88;;;1.40;;
74344;SDS011;62776;50.518;6.732;2022-11-20T13:26:29;2.67;;;1.77;;
74344;SDS011;62776;50.518;6.732;2022-11-20T13:29:18;3.72;;;2.05;;
74344;SDS011;62776;50.518;6.732;2022-11-20T13:32:17;5.13;;;2.47;;
74344;SDS011;62776;50.518;6.732;2022-11-20T13:35:05;4.25;;;2.25;;
74344;SDS011;62776;50.518;6.732;2022-11-20T13:38:03;2.85;;;2.10;;
74344;SDS011;62776;50.518;6.732;2022-11-20T13:40:51;3.70;;;2.15;;
74344;SDS011;62776;50.518;6.732;2022-11-20T13:43:39;3.72;;;1.80;;
74344;SDS011;62776;50.518;6.732;2022-11-20T13:46:36;1.90;;;1.77;;
74344;SDS011;62776;50.518;6.732;2022-11-20T13:49:34;4.00;;;1.95;;
74344;SDS011;62776;50.518;6.732;2022-11-20T13:55:26;3.97;;;2.00;;
74344;SDS011;62776;50.518;6.732;2022-11-20T14:01:53;2.22;;;1.67;;
74344;SDS011;62776;50.518;6.732;2022-11-20T14:04:42;2.75;;;2.25;;
74344;SDS011;62776;50.518;6.732;2022-11-20T14:07:37;4.13;;;2.15;;
74344;SDS011;62776;50.518;6.732;2022-11-20T14:10:28;3.53;;;2.28;;
74344;SDS011;62776;50.518;6.732;2022-11-20T14:13:19;3.83;;;2.42;;
74344;SDS011;62776;50.518;6.732;2022-11-20T14:16:05;3.30;;;2.30;;
74344;SDS011;62776;50.518;6.732;2022-11-20T14:18:54;4.57;;;2.35;;
74344;SDS011;62776;50.518;6.732;2022-11-20T14:21:41;3.28;;;2.95;;
74344;SDS011;62776;50.518;6.732;2022-11-20T14:24:27;3.72;;;2.63;;
74344;SDS011;62776;50.518;6.732;2022-11-20T14:27:17;3.08;;;2.38;;
74344;SDS011;62776;50.518;6.732;2022-11-20T14:30:04;6.00;;;4.30;;
74344;SDS011;62776;50.518;6.732;2022-11-20T14:33:00;2.80;;;2.58;;
74344;SDS011;62776;50.518;6.732;2022-11-20T14:35:49;5.35;;;2.47;;
74344;SDS011;62776;50.518;6.732;2022-11-20T14:38:40;2.60;;;1.80;;
74344;SDS011;62776;50.518;6.732;2022-11-20T14:41:27;2.22;;;1.70;;
74344;SDS011;62776;50.518;6.732;2022-11-20T14:44:14;2.33;;;1.67;;
74344;SDS011;62776;50.518;6.732;2022-11-20T14:47:00;4.63;;;1.75;;
74344;SDS011;62776;50.518;6.732;2022-11-20T14:49:48;2.42;;;2.00;;
74344;SDS011;62776;50.518;6.732;2022-11-20T14:52:35;3.13;;;2.33;;
74344;SDS011;62776;50.518;6.732;2022-11-20T14:55:31;5.35;;;3.10;;
74344;SDS011;62776;50.518;6.732;2022-11-20T14:58:23;4.57;;;3.30;;
74344;SDS011;62776;50.518;6.732;2022-11-20T15:01:12;4.88;;;2.40;;
74344;SDS011;62776;50.518;6.732;2022-11-20T15:04:00;3.17;;;1.98;;
74344;SDS011;62776;50.518;6.732;2022-11-20T15:06:51;5.50;;;2.40;;
74344;SDS011;62776;50.518;6.732;2022-11-20T15:09:39;2.97;;;1.70;;
74344;SDS011;62776;50.518;6.732;2022-11-20T15:12:25;2.65;;;2.20;;
74344;SDS011;62776;50.518;6.732;2022-11-20T15:15:11;3.30;;;2.10;;
74344;SDS011;62776;50.518;6.732;2022-11-20T15:17:59;7.80;;;5.38;;
74344;SDS011;62776;50.518;6.732;2022-11-20T15:20:46;5.03;;;2.60;;
74344;SDS011;62776;50.518;6.732;2022-11-20T15:23:33;2.85;;;2.28;;
74344;SDS011;62776;50.518;6.732;2022-11-20T15:26:24;3.60;;;2.33;;
74344;SDS011;62776;50.518;6.732;2022-11-20T15:29:12;3.63;;;2.20;;
74344;SDS011;62776;50.518;6.732;2022-11-20T15:32:03;3.28;;;2.22;;
74344;SDS011;62776;50.518;6.732;2022-11-20T15:34:50;5.07;;;2.50;;
74344;SDS011;62776;50.518;6.732;2022-11-20T15:37:36;4.35;;;2.55;;
74344;SDS011;62776;50.518;6.732;2022-11-20T15:40:23;3.83;;;2.22;;
74344;SDS011;62776;50.518;6.732;2022-11-20T15:43:09;3.65;;;2.15;;
74344;SDS011;62776;50.518;6.732;2022-11-20T15:46:05;3.25;;;1.80;;
74344;SDS011;62776;50.518;6.732;2022-11-20T15:48:56;2.65;;;2.33;;
74344;SDS011;62776;50.518;6.732;2022-11-20T15:51:45;2.70;;;2.50;;
74344;SDS011;62776;50.518;6.732;2022-11-20T15:54:33;2.53;;;1.83;;
74344;SDS011;62776;50.518;6.732;2022-11-20T15:57:19;3.78;;;2.75;;
74344;SDS011;62776;50.518;6.732;2022-11-20T16:00:05;2.80;;;2.60;;
74344;SDS011;62776;50.518;6.732;2022-11-20T16:02:52;3.55;;;3.25;;
74344;SDS011;62776;50.518;6.732;2022-11-20T16:05:38;5.45;;;3.30;;
74344;SDS011;62776;50.518;6.732;2022-11-20T16:08:24;4.15;;;2.40;;
74344;SDS011;62776;50.518;6.732;2022-11-20T16:11:14;3.28;;;2.42;;
74344;SDS011;62776;50.518;6.732;2022-11-20T16:14:02;3.03;;;2.30;;
74344;SDS011;62776;50.518;6.732;2022-11-20T16:17:08;2.95;;;2.00;;
74344;SDS011;62776;50.518;6.732;2022-11-20T16:19:54;2.83;;;2.25;;
74344;SDS011;62776;50.518;6.732;2022-11-20T16:22:40;2.30;;;2.15;;
74344;SDS011;62776;50.518;6.732;2022-11-20T16:25:26;2.58;;;2.25;;
74344;SDS011;62776;50.518;6.732;2022-11-20T16:28:12;1.92;;;1.77;;
74344;SDS011;62776;50.518;6.732;2022-11-20T16:31:07;3.65;;;2.03;;
74344;SDS011;62776;50.518;6.732;2022-11-20T16:33:58;2.55;;;2.35;;
74344;SDS011;62776;50.518;6.732;2022-11-20T16:36:46;2.83;;;2.00;;
74344;SDS011;62776;50.518;6.732;2022-11-20T16:39:33;1.85;;;1.63;;
74344;SDS011;62776;50.518;6.732;2022-11-20T16:42:19;1.50;;;1.40;;
74344;SDS011;62776;50.518;6.732;2022-11-20T16:45:05;1.40;;;1.30;;
74344;SDS011;62776;50.518;6.732;2022-11-20T16:47:51;1.60;;;1.50;;
74344;SDS011;62776;50.518;6.732;2022-11-20T16:50:43;1.60;;;1.35;;
74344;SDS011;62776;50.518;6.732;2022-11-20T16:53:31;1.42;;;1.33;;
74344;SDS011;62776;50.518;6.732;2022-11-20T16:56:18;1.23;;;1.13;;
74344;SDS011;62776;50.518;6.732;2022-11-20T16:59:06;0.90;;;0.90;;
74344;SDS011;62776;50.518;6.732;2022-11-20T17:01:52;2.38;;;1.08;;
74344;SDS011;62776;50.518;6.732;2022-11-20T17:04:38;1.13;;;1.13;;
74344;SDS011;62776;50.518;6.732;2022-11-20T17:07:25;0.98;;;0.98;;
74344;SDS011;62776;50.518;6.732;2022-11-20T17:10:11;0.93;;;0.93;;
74344;SDS011;62776;50.518;6.732;2022-11-20T17:12:57;1.02;;;0.90;;
74344;SDS011;62776;50.518;6.732;2022-11-20T17:15:43;1.10;;;1.10;;
74344;SDS011;62776;50.518;6.732;2022-11-20T17:18:29;2.13;;;0.70;;
74344;SDS011;62776;50.518;6.732;2022-11-20T17:21:16;0.85;;;0.85;;
74344;SDS011;62776;50.518;6.732;2022-11-20T17:24:03;0.80;;;0.80;;
74344;SDS011;62776;50.518;6.732;2022-11-20T17:26:54;1.00;;;1.00;;
74344;SDS011;62776;50.518;6.732;2022-11-20T17:29:40;1.33;;;1.23;;
74344;SDS011;62776;50.518;6.732;2022-11-20T17:32:26;0.63;;;0.63;;
74344;SDS011;62776;50.518;6.732;2022-11-20T17:35:13;0.60;;;0.60;;